sensor_id;sensor_type;location;lat;lon;timestamp;pressure;altitude;pressure_sealevel;temperature;humidity
70133;BME280;57495;49.922;7.966;2023-07-08T00:01:10;99961.78;;;21.73;50.58
70133;BME280;57495;49.922;7.966;2023-07-08T00:03:12;99968.09;;;21.73;51.01
70133;BME280;57495;49.922;7.966;2023-07-08T00:05:16;99975.03;;;21.69;51.83
70133;BME280;57495;49.922;7.966;2023-07-08T00:07:20;99977.06;;;21.74;51.65
70133;BME280;57495;49.922;7.966;2023-07-08T00:09:22;99981.69;;;21.73;52.32
70133;BME280;57495;49.922;7.966;2023-07-08T00:11:25;99971.50;;;21.62;53.02
70133;BME280;57495;49.922;7.966;2023-07-08T00:13:27;99984.22;;;21.68;52.72
70133;BME280;57495;49.922;7.966;2023-07-08T00:15:31;99976.88;;;21.69;52.57
70133;BME280;57495;49.922;7.966;2023-07-08T00:17:33;99990.16;;;21.52;53.94
70133;BME280;57495;49.922;7.966;2023-07-08T00:19:34;99990.34;;;21.50;54.43
70133;BME280;57495;49.922;7.966;2023-07-08T00:21:36;99990.38;;;21.43;54.24
70133;BME280;57495;49.922;7.966;2023-07-08T00:23:38;99994.56;;;21.39;53.23
70133;BME280;57495;49.922;7.966;2023-07-08T00:25:40;99986.56;;;21.58;52.81
70133;BME280;57495;49.922;7.966;2023-07-08T00:27:42;99992.00;;;21.58;53.33
70133;BME280;57495;49.922;7.966;2023-07-08T00:29:43;99996.03;;;21.42;53.08
70133;BME280;57495;49.922;7.966;2023-07-08T00:31:45;99990.81;;;21.34;55.64
70133;BME280;57495;49.922;7.966;2023-07-08T00:33:46;99985.38;;;21.47;53.85
70133;BME280;57495;49.922;7.966;2023-07-08T00:35:47;99985.34;;;21.40;55.85
70133;BME280;57495;49.922;7.966;2023-07-08T00:37:50;99982.00;;;21.38;55.08
70133;BME280;57495;49.922;7.966;2023-07-08T00:39:54;99977.41;;;21.46;54.07
70133;BME280;57495;49.922;7.966;2023-07-08T00:41:56;99972.78;;;21.53;52.19
70133;BME280;57495;49.922;7.966;2023-07-08T00:43:59;99973.59;;;21.60;51.45
70133;BME280;57495;49.922;7.966;2023-07-08T00:46:08;99974.63;;;21.59;52.67
70133;BME280;57495;49.922;7.966;2023-07-08T00:48:19;99974.38;;;21.67;52.80
70133;BME280;57495;49.922;7.966;2023-07-08T00:50:23;99974.00;;;21.64;52.73
70133;BME280;57495;49.922;7.966;2023-07-08T00:52:26;99975.03;;;21.62;54.99
70133;BME280;57495;49.922;7.966;2023-07-08T00:54:28;99962.94;;;21.52;53.63
70133;BME280;57495;49.922;7.966;2023-07-08T00:56:33;99962.25;;;21.63;53.17
70133;BME280;57495;49.922;7.966;2023-07-08T00:58:45;99953.91;;;21.58;52.66
70133;BME280;57495;49.922;7.966;2023-07-08T01:00:47;99948.00;;;21.68;50.00
70133;BME280;57495;49.922;7.966;2023-07-08T01:02:52;99937.03;;;21.81;48.77
70133;BME280;57495;49.922;7.966;2023-07-08T01:04:59;99927.75;;;21.95;47.81
70133;BME280;57495;49.922;7.966;2023-07-08T01:07:03;99898.78;;;22.01;48.03
70133;BME280;57495;49.922;7.966;2023-07-08T01:09:09;99871.03;;;22.11;46.63
70133;BME280;57495;49.922;7.966;2023-07-08T01:11:12;99876.19;;;22.19;46.89
70133;BME280;57495;49.922;7.966;2023-07-08T01:13:16;99906.94;;;22.33;45.73
70133;BME280;57495;49.922;7.966;2023-07-08T01:15:19;99955.94;;;22.39;45.74
70133;BME280;57495;49.922;7.966;2023-07-08T01:17:22;99982.22;;;21.43;52.87
70133;BME280;57495;49.922;7.966;2023-07-08T01:19:24;100006.34;;;21.20;52.64
70133;BME280;57495;49.922;7.966;2023-07-08T01:21:34;99975.72;;;21.45;51.51
70133;BME280;57495;49.922;7.966;2023-07-08T01:23:37;99946.59;;;21.52;50.83
70133;BME280;57495;49.922;7.966;2023-07-08T01:25:38;99930.69;;;21.94;45.39
70133;BME280;57495;49.922;7.966;2023-07-08T01:27:43;99927.13;;;22.18;44.71
70133;BME280;57495;49.922;7.966;2023-07-08T01:29:46;99936.19;;;22.12;45.59
70133;BME280;57495;49.922;7.966;2023-07-08T01:31:47;99958.88;;;22.06;47.86
70133;BME280;57495;49.922;7.966;2023-07-08T01:33:49;99969.00;;;21.99;48.57
70133;BME280;57495;49.922;7.966;2023-07-08T01:35:52;99970.31;;;21.90;48.44
70133;BME280;57495;49.922;7.966;2023-07-08T01:37:59;99967.09;;;21.99;48.70
70133;BME280;57495;49.922;7.966;2023-07-08T01:40:24;99960.19;;;21.97;48.65
70133;BME280;57495;49.922;7.966;2023-07-08T01:42:26;99962.94;;;21.97;48.64
70133;BME280;57495;49.922;7.966;2023-07-08T01:44:29;99955.81;;;21.89;48.60
70133;BME280;57495;49.922;7.966;2023-07-08T01:46:30;99964.41;;;21.93;48.36
70133;BME280;57495;49.922;7.966;2023-07-08T01:48:36;99963.97;;;21.96;47.99
70133;BME280;57495;49.922;7.966;2023-07-08T01:50:42;99964.91;;;21.76;48.95
70133;BME280;57495;49.922;7.966;2023-07-08T01:52:46;99963.44;;;21.80;49.08
70133;BME280;57495;49.922;7.966;2023-07-08T01:54:54;99960.09;;;21.78;46.98
70133;BME280;57495;49.922;7.966;2023-07-08T01:56:58;99959.16;;;21.91;46.62
70133;BME280;57495;49.922;7.966;2023-07-08T01:59:00;99949.25;;;21.65;49.60
70133;BME280;57495;49.922;7.966;2023-07-08T02:01:02;99948.91;;;21.55;49.68
70133;BME280;57495;49.922;7.966;2023-07-08T02:03:04;99945.56;;;21.53;49.41
70133;BME280;57495;49.922;7.966;2023-07-08T02:05:04;99946.81;;;21.57;49.07
70133;BME280;57495;49.922;7.966;2023-07-08T02:07:06;99939.69;;;21.56;48.13
70133;BME280;57495;49.922;7.966;2023-07-08T02:09:07;99938.44;;;21.58;47.94
70133;BME280;57495;49.922;7.966;2023-07-08T02:11:09;99934.63;;;21.59;47.85
70133;BME280;57495;49.922;7.966;2023-07-08T02:13:11;99937.06;;;21.74;47.39
70133;BME280;57495;49.922;7.966;2023-07-08T02:15:13;99928.75;;;21.69;47.62
70133;BME280;57495;49.922;7.966;2023-07-08T02:17:15;99928.69;;;21.76;47.17
70133;BME280;57495;49.922;7.966;2023-07-08T02:19:17;99916.06;;;21.88;46.40
70133;BME280;57495;49.922;7.966;2023-07-08T02:21:19;99923.94;;;21.96;45.91
70133;BME280;57495;49.922;7.966;2023-07-08T02:23:20;99913.66;;;21.98;45.68
70133;BME280;57495;49.922;7.966;2023-07-08T02:25:22;99913.91;;;21.97;46.60
70133;BME280;57495;49.922;7.966;2023-07-08T02:27:23;99911.00;;;21.92;48.17
70133;BME280;57495;49.922;7.966;2023-07-08T02:29:26;99917.69;;;21.89;49.45
70133;BME280;57495;49.922;7.966;2023-07-08T02:31:28;99921.13;;;21.78;50.00
70133;BME280;57495;49.922;7.966;2023-07-08T02:33:29;99915.28;;;21.74;49.64
70133;BME280;57495;49.922;7.966;2023-07-08T02:35:32;99916.97;;;21.75;50.22
70133;BME280;57495;49.922;7.966;2023-07-08T02:37:34;99918.69;;;21.70;51.22
70133;BME280;57495;49.922;7.966;2023-07-08T02:39:35;99921.19;;;21.71;53.25
70133;BME280;57495;49.922;7.966;2023-07-08T02:41:37;99916.72;;;21.38;53.43
70133;BME280;57495;49.922;7.966;2023-07-08T02:43:38;99920.94;;;21.34;53.44
70133;BME280;57495;49.922;7.966;2023-07-08T02:45:41;99920.16;;;21.14;53.41
70133;BME280;57495;49.922;7.966;2023-07-08T02:47:42;99915.97;;;21.11;53.73
70133;BME280;57495;49.922;7.966;2023-07-08T02:49:44;99907.00;;;21.11;51.18
70133;BME280;57495;49.922;7.966;2023-07-08T02:51:46;99905.28;;;21.16;52.33
70133;BME280;57495;49.922;7.966;2023-07-08T02:53:49;99914.25;;;21.23;52.93
70133;BME280;57495;49.922;7.966;2023-07-08T02:55:51;99912.22;;;21.05;49.79
70133;BME280;57495;49.922;7.966;2023-07-08T02:57:52;99918.91;;;21.10;50.75
70133;BME280;57495;49.922;7.966;2023-07-08T02:59:53;99918.53;;;20.99;50.44
70133;BME280;57495;49.922;7.966;2023-07-08T03:01:56;99930.25;;;21.00;52.23
70133;BME280;57495;49.922;7.966;2023-07-08T03:03:58;99934.88;;;20.86;54.39
70133;BME280;57495;49.922;7.966;2023-07-08T03:06:02;99940.31;;;20.86;54.64
70133;BME280;57495;49.922;7.966;2023-07-08T03:08:03;99947.03;;;20.77;54.40
70133;BME280;57495;49.922;7.966;2023-07-08T03:10:05;99954.16;;;20.64;55.21
70133;BME280;57495;49.922;7.966;2023-07-08T03:12:07;99963.53;;;20.69;55.60
70133;BME280;57495;49.922;7.966;2023-07-08T03:14:09;99965.44;;;20.61;56.14
70133;BME280;57495;49.922;7.966;2023-07-08T03:16:10;99962.91;;;20.53;56.61
70133;BME280;57495;49.922;7.966;2023-07-08T03:18:14;99956.19;;;20.56;55.79
70133;BME280;57495;49.922;7.966;2023-07-08T03:20:16;99954.13;;;20.38;55.90
70133;BME280;57495;49.922;7.966;2023-07-08T03:22:18;99964.13;;;20.17;56.70
70133;BME280;57495;49.922;7.966;2023-07-08T03:24:18;99964.97;;;20.24;57.21
70133;BME280;57495;49.922;7.966;2023-07-08T03:26:21;99963.31;;;20.37;58.02
70133;BME280;57495;49.922;7.966;2023-07-08T03:28:23;99960.38;;;20.32;58.54
70133;BME280;57495;49.922;7.966;2023-07-08T03:30:25;99959.13;;;20.47;57.53
70133;BME280;57495;49.922;7.966;2023-07-08T03:32:27;99960.19;;;20.40;59.25
70133;BME280;57495;49.922;7.966;2023-07-08T03:34:30;99963.28;;;20.30;59.22
70133;BME280;57495;49.922;7.966;2023-07-08T03:36:32;99963.09;;;20.25;59.77
70133;BME280;57495;49.922;7.966;2023-07-08T03:38:33;99958.91;;;20.16;61.04
70133;BME280;57495;49.922;7.966;2023-07-08T03:40:33;99957.63;;;20.12;59.99
70133;BME280;57495;49.922;7.966;2023-07-08T03:42:35;99952.88;;;20.14;60.56
70133;BME280;57495;49.922;7.966;2023-07-08T03:44:36;99954.94;;;20.18;60.13
70133;BME280;57495;49.922;7.966;2023-07-08T03:46:37;99957.88;;;20.23;59.05
70133;BME280;57495;49.922;7.966;2023-07-08T03:48:38;99955.38;;;20.28;60.10
70133;BME280;57495;49.922;7.966;2023-07-08T03:50:41;99964.97;;;20.24;60.10
70133;BME280;57495;49.922;7.966;2023-07-08T03:52:43;99957.88;;;20.23;58.63
70133;BME280;57495;49.922;7.966;2023-07-08T03:54:44;99961.63;;;20.36;57.81
70133;BME280;57495;49.922;7.966;2023-07-08T03:56:46;99959.97;;;20.48;54.59
70133;BME280;57495;49.922;7.966;2023-07-08T03:58:48;99963.75;;;20.47;55.69
70133;BME280;57495;49.922;7.966;2023-07-08T04:00:50;99973.38;;;20.56;58.08
70133;BME280;57495;49.922;7.966;2023-07-08T04:02:51;99971.88;;;20.87;57.17
70133;BME280;57495;49.922;7.966;2023-07-08T04:04:53;99985.06;;;20.63;58.73
70133;BME280;57495;49.922;7.966;2023-07-08T04:06:56;99972.50;;;20.56;59.76
70133;BME280;57495;49.922;7.966;2023-07-08T04:08:57;99979.63;;;20.63;59.72
70133;BME280;57495;49.922;7.966;2023-07-08T04:10:58;99981.72;;;20.61;61.05
70133;BME280;57495;49.922;7.966;2023-07-08T04:13:00;99976.69;;;20.58;62.28
70133;BME280;57495;49.922;7.966;2023-07-08T04:15:01;99977.16;;;20.62;63.10
70133;BME280;57495;49.922;7.966;2023-07-08T04:17:03;99970.84;;;20.61;63.65
70133;BME280;57495;49.922;7.966;2023-07-08T04:19:04;99965.00;;;20.51;64.67
70133;BME280;57495;49.922;7.966;2023-07-08T04:21:06;99966.25;;;20.55;64.22
70133;BME280;57495;49.922;7.966;2023-07-08T04:23:09;99962.88;;;20.46;63.79
70133;BME280;57495;49.922;7.966;2023-07-08T04:25:10;99964.56;;;20.47;62.99
70133;BME280;57495;49.922;7.966;2023-07-08T04:27:13;99955.38;;;20.42;64.86
70133;BME280;57495;49.922;7.966;2023-07-08T04:29:17;99954.53;;;20.48;63.96
70133;BME280;57495;49.922;7.966;2023-07-08T04:31:20;99954.53;;;20.41;61.88
70133;BME280;57495;49.922;7.966;2023-07-08T04:33:21;99950.34;;;20.52;57.12
70133;BME280;57495;49.922;7.966;2023-07-08T04:35:22;99945.34;;;20.69;53.09
70133;BME280;57495;49.922;7.966;2023-07-08T04:37:24;99948.69;;;20.84;52.00
70133;BME280;57495;49.922;7.966;2023-07-08T04:39:27;99948.66;;;20.91;51.97
70133;BME280;57495;49.922;7.966;2023-07-08T04:41:28;99943.63;;;21.01;51.14
70133;BME280;57495;49.922;7.966;2023-07-08T04:43:30;99948.84;;;21.03;50.73
70133;BME280;57495;49.922;7.966;2023-07-08T04:45:31;99948.59;;;21.18;50.18
70133;BME280;57495;49.922;7.966;2023-07-08T04:47:32;99948.19;;;21.14;50.30
70133;BME280;57495;49.922;7.966;2023-07-08T04:49:34;99950.25;;;21.19;50.14
70133;BME280;57495;49.922;7.966;2023-07-08T04:51:37;99944.81;;;21.26;49.69
70133;BME280;57495;49.922;7.966;2023-07-08T04:53:38;99944.81;;;21.26;48.68
70133;BME280;57495;49.922;7.966;2023-07-08T04:55:44;99948.97;;;21.28;48.72
70133;BME280;57495;49.922;7.966;2023-07-08T04:57:47;99955.84;;;21.37;48.06
70133;BME280;57495;49.922;7.966;2023-07-08T04:59:49;99957.13;;;21.35;47.69
70133;BME280;57495;49.922;7.966;2023-07-08T05:01:50;99961.06;;;21.39;47.79
70133;BME280;57495;49.922;7.966;2023-07-08T05:03:53;99965.69;;;21.38;47.69
70133;BME280;57495;49.922;7.966;2023-07-08T05:05:53;99965.03;;;21.43;47.44
70133;BME280;57495;49.922;7.966;2023-07-08T05:07:55;99966.09;;;21.42;47.13
70133;BME280;57495;49.922;7.966;2023-07-08T05:09:56;99962.31;;;21.43;48.66
70133;BME280;57495;49.922;7.966;2023-07-08T05:11:59;99971.13;;;21.32;49.35
70133;BME280;57495;49.922;7.966;2023-07-08T05:14:00;99974.06;;;21.30;48.46
70133;BME280;57495;49.922;7.966;2023-07-08T05:16:02;99968.63;;;21.30;47.82
70133;BME280;57495;49.922;7.966;2023-07-08T05:18:03;99966.56;;;21.32;47.97
70133;BME280;57495;49.922;7.966;2023-07-08T05:20:06;99969.91;;;21.34;47.34
70133;BME280;57495;49.922;7.966;2023-07-08T05:22:09;99976.78;;;21.37;47.15
70133;BME280;57495;49.922;7.966;2023-07-08T05:24:10;99969.22;;;21.39;47.05
70133;BME280;57495;49.922;7.966;2023-07-08T05:26:12;99970.72;;;21.41;46.85
70133;BME280;57495;49.922;7.966;2023-07-08T05:28:14;99973.00;;;21.45;47.11
70133;BME280;57495;49.922;7.966;2023-07-08T05:30:17;99975.31;;;21.48;46.27
70133;BME280;57495;49.922;7.966;2023-07-08T05:32:19;99981.38;;;21.50;46.12
70133;BME280;57495;49.922;7.966;2023-07-08T05:34:21;99984.50;;;21.53;46.17
70133;BME280;57495;49.922;7.966;2023-07-08T05:36:22;99980.75;;;21.54;46.16
70133;BME280;57495;49.922;7.966;2023-07-08T05:38:24;99984.91;;;21.57;46.19
70133;BME280;57495;49.922;7.966;2023-07-08T05:40:25;99983.22;;;21.56;46.26
70133;BME280;57495;49.922;7.966;2023-07-08T05:42:27;99981.91;;;21.65;46.31
70133;BME280;57495;49.922;7.966;2023-07-08T05:44:29;100001.16;;;21.70;46.31
70133;BME280;57495;49.922;7.966;2023-07-08T05:46:31;99999.88;;;21.73;46.56
70133;BME280;57495;49.922;7.966;2023-07-08T05:48:32;100000.75;;;21.73;45.95
70133;BME280;57495;49.922;7.966;2023-07-08T05:50:34;99999.66;;;21.81;46.59
70133;BME280;57495;49.922;7.966;2023-07-08T05:52:34;100003.66;;;21.78;48.18
70133;BME280;57495;49.922;7.966;2023-07-08T05:54:36;100007.84;;;21.74;50.96
70133;BME280;57495;49.922;7.966;2023-07-08T05:56:37;100020.47;;;21.62;53.21
70133;BME280;57495;49.922;7.966;2023-07-08T05:58:39;100022.59;;;21.60;55.27
70133;BME280;57495;49.922;7.966;2023-07-08T06:00:42;100013.41;;;21.48;55.86
70133;BME280;57495;49.922;7.966;2023-07-08T06:02:42;100019.03;;;21.39;57.84
70133;BME280;57495;49.922;7.966;2023-07-08T06:04:44;100022.41;;;21.41;60.38
70133;BME280;57495;49.922;7.966;2023-07-08T06:06:45;100011.28;;;21.43;61.61
70133;BME280;57495;49.922;7.966;2023-07-08T06:08:47;100017.59;;;21.43;62.94
70133;BME280;57495;49.922;7.966;2023-07-08T06:10:49;100023.00;;;21.64;63.81
70133;BME280;57495;49.922;7.966;2023-07-08T06:12:52;100022.13;;;21.63;62.39
70133;BME280;57495;49.922;7.966;2023-07-08T06:14:53;100034.44;;;21.72;63.09
70133;BME280;57495;49.922;7.966;2023-07-08T06:16:57;100035.53;;;21.71;62.69
70133;BME280;57495;49.922;7.966;2023-07-08T06:18:59;100051.41;;;21.81;62.44
70133;BME280;57495;49.922;7.966;2023-07-08T06:21:00;100048.91;;;21.73;61.84
70133;BME280;57495;49.922;7.966;2023-07-08T06:23:02;100053.91;;;21.76;60.33
70133;BME280;57495;49.922;7.966;2023-07-08T06:25:04;100055.56;;;21.84;60.77
70133;BME280;57495;49.922;7.966;2023-07-08T06:27:06;100060.72;;;22.05;60.41
70133;BME280;57495;49.922;7.966;2023-07-08T06:29:07;100053.75;;;22.09;60.23
70133;BME280;57495;49.922;7.966;2023-07-08T06:31:08;100050.34;;;22.20;59.20
70133;BME280;57495;49.922;7.966;2023-07-08T06:33:11;100060.81;;;22.24;58.59
70133;BME280;57495;49.922;7.966;2023-07-08T06:35:13;100058.72;;;22.32;57.00
70133;BME280;57495;49.922;7.966;2023-07-08T06:37:14;100063.66;;;22.42;55.90
70133;BME280;57495;49.922;7.966;2023-07-08T06:39:16;100075.97;;;22.51;53.70
70133;BME280;57495;49.922;7.966;2023-07-08T06:41:18;100087.41;;;22.67;53.31
70133;BME280;57495;49.922;7.966;2023-07-08T06:43:19;100089.97;;;22.87;52.75
70133;BME280;57495;49.922;7.966;2023-07-08T06:45:20;100084.63;;;23.05;50.35
70133;BME280;57495;49.922;7.966;2023-07-08T06:47:22;100087.03;;;23.13;49.60
70133;BME280;57495;49.922;7.966;2023-07-08T06:49:24;100083.66;;;23.18;47.01
70133;BME280;57495;49.922;7.966;2023-07-08T06:51:26;100077.25;;;23.31;46.30
70133;BME280;57495;49.922;7.966;2023-07-08T06:53:28;100067.63;;;23.28;46.19
70133;BME280;57495;49.922;7.966;2023-07-08T06:55:29;100065.59;;;23.17;45.34
70133;BME280;57495;49.922;7.966;2023-07-08T06:57:31;100070.19;;;23.23;45.54
70133;BME280;57495;49.922;7.966;2023-07-08T06:59:33;100072.53;;;23.20;44.33
70133;BME280;57495;49.922;7.966;2023-07-08T07:01:34;100076.09;;;23.20;44.63
70133;BME280;57495;49.922;7.966;2023-07-08T07:03:37;100073.56;;;23.19;44.52
70133;BME280;57495;49.922;7.966;2023-07-08T07:05:40;100073.56;;;23.19;44.95
70133;BME280;57495;49.922;7.966;2023-07-08T07:07:43;100066.06;;;23.14;45.08
70133;BME280;57495;49.922;7.966;2023-07-08T07:09:44;100071.16;;;23.10;44.86
70133;BME280;57495;49.922;7.966;2023-07-08T07:11:45;100077.44;;;23.11;45.04
70133;BME280;57495;49.922;7.966;2023-07-08T07:13:47;100079.56;;;23.09;44.69
70133;BME280;57495;49.922;7.966;2023-07-08T07:15:48;100069.91;;;23.50;44.48
70133;BME280;57495;49.922;7.966;2023-07-08T07:17:49;100062.63;;;23.99;43.50
70133;BME280;57495;49.922;7.966;2023-07-08T07:19:50;100067.88;;;24.31;42.83
70133;BME280;57495;49.922;7.966;2023-07-08T07:21:53;100057.44;;;24.70;41.40
70133;BME280;57495;49.922;7.966;2023-07-08T07:23:54;100058.63;;;25.09;41.07
70133;BME280;57495;49.922;7.966;2023-07-08T07:25:56;100066.03;;;25.44;39.93
70133;BME280;57495;49.922;7.966;2023-07-08T07:27:58;100068.78;;;25.21;39.76
70133;BME280;57495;49.922;7.966;2023-07-08T07:29:59;100070.56;;;25.03;39.54
70133;BME280;57495;49.922;7.966;2023-07-08T07:32:01;100065.78;;;25.22;40.92
70133;BME280;57495;49.922;7.966;2023-07-08T07:34:02;100075.44;;;25.01;39.83
70133;BME280;57495;49.922;7.966;2023-07-08T07:36:04;100082.09;;;24.94;40.44
70133;BME280;57495;49.922;7.966;2023-07-08T07:38:06;100080.06;;;25.01;40.63
70133;BME280;57495;49.922;7.966;2023-07-08T07:40:09;100083.31;;;25.21;40.61
70133;BME280;57495;49.922;7.966;2023-07-08T07:42:13;100073.56;;;25.49;41.25
70133;BME280;57495;49.922;7.966;2023-07-08T07:44:15;100071.28;;;25.46;38.63
70133;BME280;57495;49.922;7.966;2023-07-08T07:46:16;100075.31;;;25.55;38.81
70133;BME280;57495;49.922;7.966;2023-07-08T07:48:18;100072.25;;;26.04;38.47
70133;BME280;57495;49.922;7.966;2023-07-08T07:50:20;100068.88;;;26.42;37.42
70133;BME280;57495;49.922;7.966;2023-07-08T07:52:21;100071.47;;;26.49;36.96
70133;BME280;57495;49.922;7.966;2023-07-08T07:54:26;100070.38;;;26.50;37.76
70133;BME280;57495;49.922;7.966;2023-07-08T07:56:27;100066.41;;;26.58;37.97
70133;BME280;57495;49.922;7.966;2023-07-08T07:58:29;100068.38;;;27.08;37.84
70133;BME280;57495;49.922;7.966;2023-07-08T08:00:31;100069.16;;;27.43;36.94
70133;BME280;57495;49.922;7.966;2023-07-08T08:02:32;100072.16;;;27.80;35.63
70133;BME280;57495;49.922;7.966;2023-07-08T08:04:34;100058.44;;;28.02;35.72
70133;BME280;57495;49.922;7.966;2023-07-08T08:06:36;100058.84;;;28.16;34.94
70133;BME280;57495;49.922;7.966;2023-07-08T08:08:37;100044.91;;;28.28;35.23
70133;BME280;57495;49.922;7.966;2023-07-08T08:10:40;100044.03;;;28.22;34.10
70133;BME280;57495;49.922;7.966;2023-07-08T08:12:43;100044.38;;;28.04;33.99
70133;BME280;57495;49.922;7.966;2023-07-08T08:14:46;100045.16;;;27.77;34.39
70133;BME280;57495;49.922;7.966;2023-07-08T08:16:47;100043.38;;;27.66;34.82
70133;BME280;57495;49.922;7.966;2023-07-08T08:18:48;100045.91;;;27.89;33.14
70133;BME280;57495;49.922;7.966;2023-07-08T08:20:50;100044.53;;;28.41;33.61
70133;BME280;57495;49.922;7.966;2023-07-08T08:22:52;100050.09;;;28.79;31.93
70133;BME280;57495;49.922;7.966;2023-07-08T08:24:53;100044.28;;;27.93;31.38
70133;BME280;57495;49.922;7.966;2023-07-08T08:26:56;100051.56;;;27.61;32.41
70133;BME280;57495;49.922;7.966;2023-07-08T08:28:57;100061.16;;;27.24;32.58
70133;BME280;57495;49.922;7.966;2023-07-08T08:30:59;100063.88;;;27.36;33.91
70133;BME280;57495;49.922;7.966;2023-07-08T08:33:01;100058.28;;;27.31;33.99
70133;BME280;57495;49.922;7.966;2023-07-08T08:35:03;100062.63;;;27.27;40.36
70133;BME280;57495;49.922;7.966;2023-07-08T08:37:05;100072.75;;;27.09;43.20
70133;BME280;57495;49.922;7.966;2023-07-08T08:39:06;100081.91;;;26.98;44.12
70133;BME280;57495;49.922;7.966;2023-07-08T08:41:12;100083.41;;;26.89;44.09
70133;BME280;57495;49.922;7.966;2023-07-08T08:43:18;100076.91;;;26.78;45.82
70133;BME280;57495;49.922;7.966;2023-07-08T08:45:21;100079.94;;;26.93;45.80
70133;BME280;57495;49.922;7.966;2023-07-08T08:47:33;100075.81;;;27.69;44.27
70133;BME280;57495;49.922;7.966;2023-07-08T08:49:40;100074.47;;;28.38;43.51
70133;BME280;57495;49.922;7.966;2023-07-08T08:51:42;100077.41;;;29.18;42.33
70133;BME280;57495;49.922;7.966;2023-07-08T08:53:45;100065.16;;;29.41;42.09
70133;BME280;57495;49.922;7.966;2023-07-08T08:55:51;100064.84;;;29.32;41.80
70133;BME280;57495;49.922;7.966;2023-07-08T08:58:08;100065.56;;;28.85;38.59
70133;BME280;57495;49.922;7.966;2023-07-08T09:00:16;100068.16;;;28.15;34.50
70133;BME280;57495;49.922;7.966;2023-07-08T09:02:29;100065.25;;;28.00;33.71
70133;BME280;57495;49.922;7.966;2023-07-08T09:04:35;100065.25;;;28.00;36.85
70133;BME280;57495;49.922;7.966;2023-07-08T09:06:38;100070.56;;;28.06;35.76
70133;BME280;57495;49.922;7.966;2023-07-08T09:08:40;100058.72;;;28.06;35.91
70133;BME280;57495;49.922;7.966;2023-07-08T09:10:45;100055.84;;;27.95;34.31
70133;BME280;57495;49.922;7.966;2023-07-08T09:12:50;100056.09;;;28.16;35.09
70133;BME280;57495;49.922;7.966;2023-07-08T09:14:53;100048.13;;;27.92;35.43
70133;BME280;57495;49.922;7.966;2023-07-08T09:17:11;100047.72;;;27.84;36.30
70133;BME280;57495;49.922;7.966;2023-07-08T09:19:18;100052.84;;;27.75;35.99
70133;BME280;57495;49.922;7.966;2023-07-08T09:21:24;100047.25;;;28.14;35.17
70133;BME280;57495;49.922;7.966;2023-07-08T09:23:30;100037.41;;;28.72;37.19
70133;BME280;57495;49.922;7.966;2023-07-08T09:25:35;100039.66;;;28.81;37.29
70133;BME280;57495;49.922;7.966;2023-07-08T09:27:39;100038.69;;;28.65;37.61
70133;BME280;57495;49.922;7.966;2023-07-08T09:29:40;100038.84;;;28.85;37.29
70133;BME280;57495;49.922;7.966;2023-07-08T09:31:42;100030.34;;;29.24;34.18
70133;BME280;57495;49.922;7.966;2023-07-08T09:33:45;100036.31;;;29.59;33.31
70133;BME280;57495;49.922;7.966;2023-07-08T09:35:48;100022.50;;;29.54;33.80
70133;BME280;57495;49.922;7.966;2023-07-08T09:37:49;100016.03;;;29.80;34.03
70133;BME280;57495;49.922;7.966;2023-07-08T09:39:51;100021.63;;;30.21;33.11
70133;BME280;57495;49.922;7.966;2023-07-08T09:41:52;100022.78;;;31.13;34.48
70133;BME280;57495;49.922;7.966;2023-07-08T09:44:03;100017.16;;;31.44;31.60
70133;BME280;57495;49.922;7.966;2023-07-08T09:46:04;100019.66;;;31.35;33.67
70133;BME280;57495;49.922;7.966;2023-07-08T09:48:14;100013.66;;;31.07;33.52
70133;BME280;57495;49.922;7.966;2023-07-08T09:50:19;100013.97;;;30.34;34.40
70133;BME280;57495;49.922;7.966;2023-07-08T09:52:21;100015.06;;;30.33;32.83
70133;BME280;57495;49.922;7.966;2023-07-08T09:54:24;100009.28;;;30.75;34.10
70133;BME280;57495;49.922;7.966;2023-07-08T09:56:27;100001.81;;;30.71;33.75
70133;BME280;57495;49.922;7.966;2023-07-08T09:58:30;100015.59;;;30.76;35.20
70133;BME280;57495;49.922;7.966;2023-07-08T10:00:38;99998.38;;;31.51;33.95
70133;BME280;57495;49.922;7.966;2023-07-08T10:02:42;100000.47;;;31.74;33.49
70133;BME280;57495;49.922;7.966;2023-07-08T10:04:44;100001.66;;;32.13;33.96
70133;BME280;57495;49.922;7.966;2023-07-08T10:06:47;99999.72;;;32.13;32.40
70133;BME280;57495;49.922;7.966;2023-07-08T10:08:49;99989.38;;;32.24;32.51
70133;BME280;57495;49.922;7.966;2023-07-08T10:10:57;100002.88;;;31.26;32.02
70133;BME280;57495;49.922;7.966;2023-07-08T10:13:03;100001.72;;;32.03;32.67
70133;BME280;57495;49.922;7.966;2023-07-08T10:15:13;100007.78;;;31.34;33.22
70133;BME280;57495;49.922;7.966;2023-07-08T10:17:20;100007.13;;;31.68;33.91
70133;BME280;57495;49.922;7.966;2023-07-08T10:19:22;100002.28;;;32.05;31.35
70133;BME280;57495;49.922;7.966;2023-07-08T10:21:36;100006.31;;;31.63;31.15
70133;BME280;57495;49.922;7.966;2023-07-08T10:23:45;100006.47;;;31.11;31.82
70133;BME280;57495;49.922;7.966;2023-07-08T10:25:55;99999.25;;;31.96;33.20
70133;BME280;57495;49.922;7.966;2023-07-08T10:28:04;100011.22;;;32.31;31.25
70133;BME280;57495;49.922;7.966;2023-07-08T10:30:17;99997.22;;;32.51;30.58
70133;BME280;57495;49.922;7.966;2023-07-08T10:32:28;100006.81;;;31.80;30.68
70133;BME280;57495;49.922;7.966;2023-07-08T10:34:42;100004.44;;;31.53;31.07
70133;BME280;57495;49.922;7.966;2023-07-08T10:36:50;100004.78;;;31.20;31.81
70133;BME280;57495;49.922;7.966;2023-07-08T10:39:12;100000.31;;;31.35;31.23
70133;BME280;57495;49.922;7.966;2023-07-08T10:41:24;100003.16;;;31.90;31.29
70133;BME280;57495;49.922;7.966;2023-07-08T10:43:54;100013.78;;;31.67;31.69
70133;BME280;57495;49.922;7.966;2023-07-08T10:46:11;100010.81;;;32.13;30.67
70133;BME280;57495;49.922;7.966;2023-07-08T10:48:39;99999.25;;;31.96;32.26